Terminal Aerodrome Forecast
Issued by NWS

Home | Current Version | Previous Version | Text Only | Print | Product List | Glossary On
Versions: 1 2 3 4 5 6 7 8 9 10 11 12 13
000
FTUS43 KMQT 292332
TAFCMX
TAF
KCMX 292332Z 3000/3024 33006KT P6SM -SHRA SCT015 BKN050
     FM300200 33005KT 6SM -SHRA BR SCT004 OVC015
     FM300400 36011KT 2SM -SHRA BR OVC004
     FM301300 02012KT 6SM BR OVC008
     FM301700 02010KT P6SM BKN025
     FM302000 36010KT P6SM SCT030=

USA.gov is the U.S. government's official web portal to all federal, state and local government web resources and services.